createdAt,value
2019-03-29T00:00:00.716Z,0.00
2019-03-29T00:01:00.742Z,0.00
2019-03-29T00:02:00.768Z,0.00
2019-03-29T00:03:00.804Z,0.00
2019-03-29T00:04:01.002Z,0.00
2019-03-29T00:05:00.851Z,0.00
2019-03-29T00:06:00.877Z,0.00
2019-03-29T00:07:00.904Z,0.00
2019-03-29T00:08:00.935Z,0.00
2019-03-29T00:09:01.952Z,0.00
2019-03-29T00:10:00.991Z,0.00
2019-03-29T00:11:01.014Z,0.00
2019-03-29T00:12:01.041Z,0.00
2019-03-29T00:13:01.072Z,0.00
2019-03-29T00:14:01.098Z,0.00
2019-03-29T00:15:01.124Z,0.00
2019-03-29T00:16:01.151Z,0.00
2019-03-29T00:17:01.177Z,0.00
2019-03-29T00:18:01.211Z,0.00
2019-03-29T00:19:01.349Z,0.00
2019-03-29T00:20:01.260Z,0.00
2019-03-29T00:21:01.288Z,0.00
2019-03-29T00:22:01.316Z,0.00
2019-03-29T00:23:01.345Z,0.00
2019-03-29T00:24:07.039Z,0.00
2019-03-29T00:25:01.402Z,0.00
2019-03-29T00:26:01.434Z,0.00
2019-03-29T00:27:01.453Z,0.00
2019-03-29T00:28:01.481Z,0.00
2019-03-29T00:29:01.515Z,0.00
2019-03-29T00:30:01.540Z,0.00
2019-03-29T00:31:01.567Z,0.00
2019-03-29T00:32:01.591Z,0.00
2019-03-29T00:33:01.620Z,0.00
2019-03-29T00:34:01.651Z,0.00
2019-03-29T00:35:01.674Z,0.00
2019-03-29T00:36:01.699Z,0.00
2019-03-29T00:37:01.729Z,0.00
2019-03-29T00:38:01.755Z,0.00
2019-03-29T00:39:01.787Z,0.00
2019-03-29T00:40:01.811Z,0.00
2019-03-29T00:41:01.843Z,0.00
2019-03-29T00:42:01.870Z,0.00
2019-03-29T00:43:01.894Z,0.00
2019-03-29T00:44:01.925Z,0.00
2019-03-29T00:45:01.954Z,0.00
2019-03-29T00:46:01.975Z,0.00
2019-03-29T00:47:02.008Z,0.00
2019-03-29T00:48:02.030Z,0.00
2019-03-29T00:49:02.058Z,0.00
2019-03-29T00:50:02.088Z,0.00
2019-03-29T00:51:02.116Z,0.00
2019-03-29T00:52:02.142Z,0.00
2019-03-29T00:53:02.172Z,0.00
2019-03-29T00:54:02.329Z,0.00
2019-03-29T00:55:02.228Z,0.00
2019-03-29T00:56:02.252Z,0.00
2019-03-29T00:57:02.280Z,0.00
2019-03-29T00:58:02.310Z,0.00
2019-03-29T00:59:02.337Z,0.00
2019-03-29T01:00:02.372Z,0.00
2019-03-29T01:01:02.391Z,0.00
2019-03-29T01:02:02.420Z,0.00
2019-03-29T01:03:02.446Z,0.00
2019-03-29T01:04:03.057Z,0.00
2019-03-29T01:05:02.500Z,0.00
2019-03-29T01:06:02.528Z,0.00
2019-03-29T01:07:02.558Z,0.00
2019-03-29T01:08:08.024Z,0.00
2019-03-29T01:09:02.611Z,0.00
2019-03-29T01:10:02.639Z,0.00
2019-03-29T01:11:02.671Z,0.00
2019-03-29T01:12:02.694Z,0.00
2019-03-29T01:13:02.723Z,0.00
2019-03-29T01:14:02.751Z,0.00
2019-03-29T01:15:02.781Z,0.00
2019-03-29T01:16:02.803Z,0.00
2019-03-29T01:17:02.833Z,0.00
2019-03-29T01:18:02.864Z,0.00
2019-03-29T01:19:03.905Z,0.00
2019-03-29T01:20:02.915Z,0.00
2019-03-29T01:21:02.945Z,0.00
2019-03-29T01:22:02.978Z,0.00
2019-03-29T01:23:03.001Z,0.00
2019-03-29T01:24:03.032Z,0.00
2019-03-29T01:25:03.055Z,0.00
2019-03-29T01:26:03.098Z,0.00
2019-03-29T01:27:03.115Z,0.00
2019-03-29T01:28:03.141Z,0.00
2019-03-29T01:29:04.565Z,0.00
2019-03-29T01:30:03.196Z,0.00
2019-03-29T01:31:03.227Z,0.00
2019-03-29T01:32:03.256Z,0.00
2019-03-29T01:33:03.279Z,0.00
2019-03-29T01:34:03.309Z,0.00
2019-03-29T01:35:03.335Z,0.00
2019-03-29T01:36:03.364Z,0.00
2019-03-29T01:37:03.394Z,0.00
2019-03-29T01:38:03.421Z,0.00
2019-03-29T01:39:03.450Z,0.00
2019-03-29T01:40:03.479Z,0.00
2019-03-29T01:41:03.506Z,0.00
2019-03-29T01:42:03.536Z,0.00
2019-03-29T01:43:03.564Z,0.00
2019-03-29T01:44:03.590Z,0.00
2019-03-29T01:45:03.619Z,0.00
2019-03-29T01:46:03.648Z,0.00
2019-03-29T01:47:04.046Z,0.00
2019-03-29T01:48:03.702Z,0.00
2019-03-29T01:49:03.731Z,0.00
2019-03-29T01:50:03.760Z,0.00
2019-03-29T01:51:03.787Z,0.00
2019-03-29T01:52:03.817Z,0.00
2019-03-29T01:53:03.852Z,0.00
2019-03-29T01:54:04.227Z,0.00
2019-03-29T01:55:03.903Z,0.00
2019-03-29T01:56:03.931Z,0.00
2019-03-29T01:57:03.959Z,0.00
2019-03-29T01:58:03.988Z,0.00
2019-03-29T01:59:04.016Z,0.00
2019-03-29T02:00:04.040Z,0.00
2019-03-29T02:01:04.069Z,0.00
2019-03-29T02:02:04.098Z,0.00
2019-03-29T02:03:04.128Z,0.00
2019-03-29T02:04:05.772Z,0.00
2019-03-29T02:05:04.183Z,0.00
2019-03-29T02:06:04.220Z,0.00
2019-03-29T02:07:04.241Z,0.00
2019-03-29T02:08:05.108Z,0.00
2019-03-29T02:09:04.993Z,0.00
2019-03-29T02:10:04.326Z,0.00
2019-03-29T02:11:04.360Z,0.00
2019-03-29T02:12:04.385Z,0.00
2019-03-29T02:13:04.417Z,0.00
2019-03-29T02:14:04.440Z,0.00
2019-03-29T02:15:04.468Z,0.00
2019-03-29T02:16:04.497Z,0.00
2019-03-29T02:17:04.525Z,0.00
2019-03-29T02:18:04.558Z,0.00
2019-03-29T02:19:05.275Z,0.00
2019-03-29T02:20:04.612Z,0.00
2019-03-29T02:21:04.639Z,0.00
2019-03-29T02:22:04.673Z,0.00
2019-03-29T02:23:04.698Z,0.00
2019-03-29T02:24:04.726Z,0.00
2019-03-29T02:25:04.756Z,0.00
2019-03-29T02:26:04.784Z,0.00
2019-03-29T02:27:04.812Z,0.00
2019-03-29T02:28:04.839Z,0.00
2019-03-29T02:29:04.871Z,0.00
2019-03-29T02:30:05.096Z,0.00
2019-03-29T02:31:04.925Z,0.00
2019-03-29T02:32:04.954Z,0.00
2019-03-29T02:33:04.984Z,0.00
2019-03-29T02:34:05.012Z,0.00
2019-03-29T02:35:05.040Z,0.00
2019-03-29T02:36:06.491Z,0.00
2019-03-29T02:37:05.099Z,0.00
2019-03-29T02:38:05.133Z,0.00
2019-03-29T02:39:05.161Z,0.00
2019-03-29T02:40:05.185Z,0.00
2019-03-29T02:41:05.214Z,0.00
2019-03-29T02:42:05.240Z,0.00
2019-03-29T02:43:05.274Z,0.00
2019-03-29T02:44:05.301Z,0.00
2019-03-29T02:45:05.327Z,0.00
2019-03-29T02:46:05.357Z,0.00
2019-03-29T02:47:05.389Z,0.00
2019-03-29T02:48:05.450Z,0.00
2019-03-29T02:49:05.443Z,0.00
2019-03-29T02:50:05.469Z,0.00
2019-03-29T02:51:05.515Z,0.00
2019-03-29T02:52:05.524Z,0.00
2019-03-29T02:53:05.558Z,0.00
2019-03-29T02:54:05.583Z,0.00
2019-03-29T02:55:05.620Z,0.00
2019-03-29T02:56:05.642Z,0.00
2019-03-29T02:57:05.667Z,0.00
2019-03-29T02:58:05.703Z,0.00
2019-03-29T02:59:05.725Z,0.00
2019-03-29T03:00:05.752Z,0.00
2019-03-29T03:01:05.783Z,0.00
2019-03-29T03:02:05.810Z,0.00
2019-03-29T03:03:05.840Z,0.00
2019-03-29T03:04:05.871Z,0.00
2019-03-29T03:05:05.898Z,0.00
2019-03-29T03:06:05.954Z,0.00
2019-03-29T03:07:05.954Z,0.00
2019-03-29T03:08:05.983Z,0.00
2019-03-29T03:09:13.959Z,0.00
2019-03-29T03:10:06.044Z,0.00
2019-03-29T03:11:06.070Z,0.00
2019-03-29T03:12:06.094Z,0.00
2019-03-29T03:13:06.138Z,0.00
2019-03-29T03:14:06.153Z,0.00
2019-03-29T03:15:06.184Z,0.00
2019-03-29T03:16:06.211Z,0.00
2019-03-29T03:17:06.238Z,0.00
2019-03-29T03:18:06.268Z,0.00
2019-03-29T03:19:06.304Z,0.00
2019-03-29T03:20:06.331Z,0.00
2019-03-29T03:21:06.358Z,0.00
2019-03-29T03:22:06.381Z,0.00
2019-03-29T03:23:06.415Z,0.00
2019-03-29T03:24:06.437Z,0.00
2019-03-29T03:25:06.468Z,0.00
2019-03-29T03:26:06.497Z,0.00
2019-03-29T03:27:06.522Z,0.00
2019-03-29T03:28:06.552Z,0.00
2019-03-29T03:29:06.579Z,0.00
2019-03-29T03:30:06.616Z,0.00
2019-03-29T03:31:06.650Z,0.00
2019-03-29T03:32:06.664Z,0.00
2019-03-29T03:33:06.707Z,0.00
2019-03-29T03:34:06.734Z,0.00
2019-03-29T03:35:06.753Z,0.00
2019-03-29T03:36:06.780Z,0.00
2019-03-29T03:37:06.863Z,0.00
2019-03-29T03:38:06.834Z,0.00
2019-03-29T03:39:06.865Z,0.00
2019-03-29T03:40:06.893Z,0.00
2019-03-29T03:41:06.922Z,0.00
2019-03-29T03:42:06.961Z,0.00
2019-03-29T03:43:06.981Z,0.00
2019-03-29T03:44:07.013Z,0.00
2019-03-29T03:45:07.037Z,0.00
2019-03-29T03:46:07.151Z,0.00
2019-03-29T03:47:07.090Z,0.00
2019-03-29T03:48:07.129Z,0.00
2019-03-29T03:49:07.147Z,0.00
2019-03-29T03:50:07.177Z,0.00
2019-03-29T03:51:07.259Z,0.00
2019-03-29T03:52:07.229Z,0.00
2019-03-29T03:53:07.258Z,0.00
2019-03-29T03:54:07.285Z,0.00
2019-03-29T03:55:07.319Z,0.00
2019-03-29T03:56:07.344Z,0.00
2019-03-29T03:57:07.369Z,5.63
2019-03-29T03:58:07.398Z,5.63
2019-03-29T03:59:07.429Z,5.63
2019-03-29T04:00:07.457Z,5.63
2019-03-29T04:01:07.487Z,5.63
2019-03-29T04:02:07.517Z,5.63
2019-03-29T04:03:07.540Z,5.63
2019-03-29T04:04:07.567Z,11.25
2019-03-29T04:05:07.601Z,11.25
2019-03-29T04:06:07.630Z,11.25
2019-03-29T04:07:07.765Z,11.25
2019-03-29T04:08:07.680Z,16.88
2019-03-29T04:09:07.709Z,16.88
2019-03-29T04:10:07.739Z,16.88
2019-03-29T04:11:07.765Z,22.50
2019-03-29T04:12:07.803Z,22.50
2019-03-29T04:13:07.823Z,22.50
2019-03-29T04:14:07.851Z,28.13
2019-03-29T04:15:07.879Z,28.13
2019-03-29T04:16:07.907Z,33.75
2019-03-29T04:17:07.938Z,33.75
2019-03-29T04:18:07.968Z,39.38
2019-03-29T04:19:08.008Z,39.38
2019-03-29T04:20:08.023Z,39.38
2019-03-29T04:21:08.046Z,45.00
2019-03-29T04:22:08.080Z,45.00
2019-03-29T04:23:08.106Z,50.63
2019-03-29T04:24:08.132Z,50.63
2019-03-29T04:25:08.161Z,56.25
2019-03-29T04:26:08.191Z,56.25
2019-03-29T04:27:08.217Z,56.25
2019-03-29T04:28:08.260Z,67.50
2019-03-29T04:29:08.280Z,61.88
2019-03-29T04:30:08.304Z,67.50
2019-03-29T04:31:08.335Z,78.75
2019-03-29T04:32:08.361Z,67.50
2019-03-29T04:33:11.055Z,67.50
2019-03-29T04:34:08.419Z,78.75
2019-03-29T04:35:08.446Z,84.38
2019-03-29T04:36:08.474Z,78.75
2019-03-29T04:37:08.500Z,84.38
2019-03-29T04:38:08.542Z,90.00
2019-03-29T04:39:08.557Z,101.25
2019-03-29T04:40:09.075Z,101.25
2019-03-29T04:41:08.618Z,95.63
2019-03-29T04:42:08.645Z,95.63
2019-03-29T04:43:08.673Z,106.88
2019-03-29T04:44:08.735Z,106.88
2019-03-29T04:45:08.729Z,101.25
2019-03-29T04:46:08.776Z,118.13
2019-03-29T04:47:08.794Z,129.38
2019-03-29T04:48:08.831Z,129.38
2019-03-29T04:49:08.844Z,135.00
2019-03-29T04:50:08.987Z,135.00
2019-03-29T04:51:08.907Z,146.25
2019-03-29T04:52:08.930Z,146.25
2019-03-29T04:53:08.987Z,146.25
2019-03-29T04:54:08.988Z,157.50
2019-03-29T04:55:09.017Z,163.13
2019-03-29T04:56:09.044Z,163.13
2019-03-29T04:57:09.079Z,157.50
2019-03-29T04:58:09.110Z,151.88
2019-03-29T04:59:09.137Z,151.88
2019-03-29T05:00:09.166Z,157.50
2019-03-29T05:01:09.195Z,151.88
2019-03-29T05:02:09.225Z,157.50
2019-03-29T05:03:09.252Z,157.50
2019-03-29T05:04:09.285Z,151.88
2019-03-29T05:05:09.309Z,157.50
2019-03-29T05:06:09.337Z,163.13
2019-03-29T05:07:09.442Z,168.75
2019-03-29T05:08:09.396Z,168.75
2019-03-29T05:09:09.425Z,168.75
2019-03-29T05:10:20.324Z,168.75
2019-03-29T05:11:09.485Z,174.38
2019-03-29T05:12:09.516Z,174.38
2019-03-29T05:13:09.546Z,174.38
2019-03-29T05:14:09.573Z,180.00
2019-03-29T05:15:09.608Z,185.63
2019-03-29T05:16:09.632Z,185.63
2019-03-29T05:17:09.659Z,191.25
2019-03-29T05:18:09.692Z,191.25
2019-03-29T05:19:09.733Z,196.88
2019-03-29T05:20:09.748Z,202.50
2019-03-29T05:21:09.776Z,202.50
2019-03-29T05:22:09.806Z,208.13
2019-03-29T05:23:09.836Z,213.75
2019-03-29T05:24:09.866Z,213.75
2019-03-29T05:25:09.894Z,219.38
2019-03-29T05:26:09.925Z,213.75
2019-03-29T05:27:09.955Z,219.38
2019-03-29T05:28:09.982Z,225.00
2019-03-29T05:29:10.013Z,225.00
2019-03-29T05:30:10.051Z,219.38
2019-03-29T05:31:10.078Z,213.75
2019-03-29T05:32:10.104Z,196.88
2019-03-29T05:33:10.134Z,202.50
2019-03-29T05:34:10.228Z,202.50
2019-03-29T05:35:10.195Z,185.63
2019-03-29T05:36:10.219Z,180.00
2019-03-29T05:37:10.249Z,196.88
2019-03-29T05:38:10.279Z,202.50
2019-03-29T05:39:10.310Z,196.88
2019-03-29T05:40:10.339Z,213.75
2019-03-29T05:41:10.368Z,208.13
2019-03-29T05:42:10.400Z,225.00
2019-03-29T05:43:10.427Z,230.63
2019-03-29T05:44:10.460Z,230.63
2019-03-29T05:45:10.492Z,241.88
2019-03-29T05:46:10.519Z,241.88
2019-03-29T05:47:10.551Z,225.00
2019-03-29T05:48:10.583Z,247.50
2019-03-29T05:49:10.609Z,241.88
2019-03-29T05:50:10.640Z,225.00
2019-03-29T05:51:10.670Z,241.88
2019-03-29T05:52:10.698Z,258.75
2019-03-29T05:53:10.729Z,264.38
2019-03-29T05:54:10.758Z,253.13
2019-03-29T05:55:10.792Z,253.13
2019-03-29T05:56:10.818Z,258.75
2019-03-29T05:57:10.848Z,264.38
2019-03-29T05:58:10.880Z,286.88
2019-03-29T05:59:10.910Z,298.13
2019-03-29T06:00:10.938Z,303.75
2019-03-29T06:01:10.971Z,315.00
2019-03-29T06:02:11.003Z,315.00
2019-03-29T06:03:11.032Z,315.00
2019-03-29T06:04:11.060Z,326.25
2019-03-29T06:05:11.096Z,348.75
2019-03-29T06:06:11.121Z,348.75
2019-03-29T06:07:11.155Z,360.00
2019-03-29T06:08:11.250Z,371.25
2019-03-29T06:09:11.213Z,382.50
2019-03-29T06:10:11.248Z,399.38
2019-03-29T06:11:11.274Z,399.38
2019-03-29T06:12:11.303Z,405.00
2019-03-29T06:13:11.338Z,405.00
2019-03-29T06:14:11.375Z,405.00
2019-03-29T06:15:11.399Z,416.25
2019-03-29T06:16:11.427Z,421.88
2019-03-29T06:17:11.458Z,438.75
2019-03-29T06:18:11.489Z,438.75
2019-03-29T06:19:11.521Z,444.38
2019-03-29T06:20:11.552Z,438.75
2019-03-29T06:21:11.585Z,433.13
2019-03-29T06:22:11.614Z,433.13
2019-03-29T06:23:11.650Z,438.75
2019-03-29T06:24:11.675Z,450.00
2019-03-29T06:25:11.708Z,455.63
2019-03-29T06:26:11.740Z,466.88
2019-03-29T06:27:11.771Z,466.88
2019-03-29T06:28:11.801Z,466.88
2019-03-29T06:29:11.834Z,472.50
2019-03-29T06:30:11.867Z,483.75
2019-03-29T06:31:11.899Z,489.38
2019-03-29T06:32:11.926Z,506.25
2019-03-29T06:33:11.957Z,495.00
2019-03-29T06:34:11.991Z,534.38
2019-03-29T06:35:12.022Z,551.25
2019-03-29T06:36:12.054Z,568.13
2019-03-29T06:37:12.085Z,585.00
2019-03-29T06:38:12.160Z,596.25
2019-03-29T06:39:12.152Z,613.13
2019-03-29T06:40:12.181Z,630.00
2019-03-29T06:41:12.216Z,658.13
2019-03-29T06:42:12.247Z,680.63
2019-03-29T06:43:12.279Z,697.50
2019-03-29T06:44:12.313Z,725.63
2019-03-29T06:45:12.344Z,720.00
2019-03-29T06:46:12.376Z,753.75
2019-03-29T06:47:12.414Z,736.88
2019-03-29T06:48:12.439Z,691.88
2019-03-29T06:49:12.472Z,736.88
2019-03-29T06:50:14.073Z,810.00
2019-03-29T06:51:12.546Z,832.50
2019-03-29T06:52:12.574Z,838.13
2019-03-29T06:53:12.603Z,810.00
2019-03-29T06:54:12.636Z,804.38
2019-03-29T06:55:12.672Z,883.13
2019-03-29T06:56:12.704Z,855.00
2019-03-29T06:57:12.740Z,871.88
2019-03-29T06:58:12.773Z,838.13
2019-03-29T06:59:12.871Z,871.88
2019-03-29T07:00:12.836Z,916.88
2019-03-29T07:01:12.875Z,978.75
2019-03-29T07:02:12.904Z,967.50
2019-03-29T07:03:12.943Z,860.63
2019-03-29T07:04:12.972Z,753.75
2019-03-29T07:05:13.006Z,703.13
2019-03-29T07:06:13.042Z,680.63
2019-03-29T07:07:13.077Z,680.63
2019-03-29T07:08:13.112Z,686.25
2019-03-29T07:09:13.186Z,714.38
2019-03-29T07:10:13.178Z,731.25
2019-03-29T07:11:17.754Z,703.13
2019-03-29T07:12:13.246Z,686.25
2019-03-29T07:13:13.287Z,691.88
2019-03-29T07:14:13.318Z,720.00
2019-03-29T07:15:13.350Z,725.63
2019-03-29T07:16:13.384Z,742.50
2019-03-29T07:17:13.424Z,753.75
2019-03-29T07:18:13.453Z,759.38
2019-03-29T07:19:13.487Z,748.13
2019-03-29T07:20:13.522Z,725.63
2019-03-29T07:21:21.544Z,725.63
2019-03-29T07:22:13.592Z,725.63
2019-03-29T07:23:13.622Z,686.25
2019-03-29T07:24:13.659Z,703.13
2019-03-29T07:25:13.694Z,675.00
2019-03-29T07:26:13.728Z,658.13
2019-03-29T07:27:13.759Z,652.50
2019-03-29T07:28:13.796Z,697.50
2019-03-29T07:29:13.830Z,652.50
2019-03-29T07:30:13.864Z,686.25
2019-03-29T07:31:13.895Z,658.13
2019-03-29T07:32:13.939Z,691.88
2019-03-29T07:33:13.967Z,691.88
2019-03-29T07:34:13.998Z,759.38
2019-03-29T07:35:14.034Z,770.63
2019-03-29T07:36:14.071Z,804.38
2019-03-29T07:37:14.098Z,916.88
2019-03-29T07:38:14.133Z,939.38
2019-03-29T07:39:14.169Z,1006.88
2019-03-29T07:40:14.201Z,804.38
2019-03-29T07:41:14.235Z,675.00
2019-03-29T07:42:14.274Z,748.13
2019-03-29T07:43:14.309Z,860.63
2019-03-29T07:44:14.338Z,1040.63
2019-03-29T07:45:14.383Z,1158.75
2019-03-29T07:46:14.411Z,1198.13
2019-03-29T07:47:14.445Z,1096.88
2019-03-29T07:48:14.477Z,1018.13
2019-03-29T07:49:14.513Z,1164.38
2019-03-29T07:50:14.546Z,1192.50
2019-03-29T07:51:14.582Z,1276.88
2019-03-29T07:52:14.627Z,1406.25
2019-03-29T07:53:14.656Z,1327.50
2019-03-29T07:54:14.688Z,1344.38
2019-03-29T07:55:14.724Z,1299.38
2019-03-29T07:56:14.809Z,1310.63
2019-03-29T07:57:14.795Z,1305.00
2019-03-29T07:58:14.832Z,1254.38
2019-03-29T07:59:14.870Z,1389.38
2019-03-29T08:00:15.676Z,1501.88
2019-03-29T08:01:14.945Z,1411.88
2019-03-29T08:02:14.981Z,1361.25
2019-03-29T08:03:15.013Z,1316.25
2019-03-29T08:04:15.053Z,1293.75
2019-03-29T08:05:15.089Z,1265.63
2019-03-29T08:06:15.127Z,1220.63
2019-03-29T08:07:26.690Z,1361.25
2019-03-29T08:08:23.861Z,1456.88
2019-03-29T08:09:22.277Z,1451.25
2019-03-29T08:10:25.706Z,1473.75
2019-03-29T08:11:25.531Z,1518.75
2019-03-29T08:12:15.377Z,1479.38
2019-03-29T08:13:16.223Z,1575.00
2019-03-29T08:14:15.429Z,1473.75
2019-03-29T08:15:15.469Z,1411.88
2019-03-29T08:16:15.509Z,1546.88
2019-03-29T08:17:15.548Z,1473.75
2019-03-29T08:18:15.587Z,1417.50
2019-03-29T08:19:15.625Z,1428.75
2019-03-29T08:20:38.038Z,1485.00
2019-03-29T08:21:15.699Z,1507.50
2019-03-29T08:22:15.738Z,1423.13
2019-03-29T08:23:15.776Z,1423.13
2019-03-29T08:24:15.815Z,1456.88
2019-03-29T08:25:15.855Z,1468.13
2019-03-29T08:26:15.894Z,1490.63
2019-03-29T08:27:15.932Z,1456.88
2019-03-29T08:28:15.971Z,1603.13
2019-03-29T08:29:16.010Z,1575.00
2019-03-29T08:30:16.049Z,1378.13
2019-03-29T08:31:16.086Z,1350.00
2019-03-29T08:32:16.127Z,1231.88
2019-03-29T08:33:16.167Z,1260.00
2019-03-29T08:34:16.208Z,1023.75
2019-03-29T08:35:16.246Z,1175.63
2019-03-29T08:36:16.282Z,1068.75
2019-03-29T08:37:16.323Z,1057.50
2019-03-29T08:38:16.366Z,1288.13
2019-03-29T08:39:27.358Z,1338.75
2019-03-29T08:40:16.441Z,1158.75
2019-03-29T08:41:16.476Z,1153.13
2019-03-29T08:42:18.560Z,1181.25
2019-03-29T08:43:16.558Z,1282.50
2019-03-29T08:44:16.591Z,1158.75
2019-03-29T08:45:16.630Z,1141.88
2019-03-29T08:46:16.674Z,1366.88
2019-03-29T08:47:16.709Z,1383.75
2019-03-29T08:48:16.750Z,1395.00
2019-03-29T08:49:17.261Z,1366.88
2019-03-29T08:50:16.820Z,1293.75
2019-03-29T08:51:16.859Z,1327.50
2019-03-29T08:52:16.897Z,1456.88
2019-03-29T08:53:16.939Z,1490.63
2019-03-29T08:54:16.977Z,1580.63
2019-03-29T08:55:17.738Z,1462.50
2019-03-29T08:56:17.053Z,1513.13
2019-03-29T08:57:17.088Z,1530.00
2019-03-29T08:58:17.138Z,1400.63
2019-03-29T08:59:17.746Z,1338.75
2019-03-29T09:00:17.205Z,1243.13
2019-03-29T09:01:19.321Z,1125.00
2019-03-29T09:02:17.281Z,1102.50
2019-03-29T09:03:17.320Z,1035.00
2019-03-29T09:04:17.361Z,1012.50
2019-03-29T09:05:17.401Z,967.50
2019-03-29T09:06:17.439Z,950.63
2019-03-29T09:07:17.477Z,973.13
2019-03-29T09:08:17.515Z,956.25
2019-03-29T09:09:17.554Z,922.50
2019-03-29T09:10:17.592Z,916.88
2019-03-29T09:11:17.636Z,911.25
2019-03-29T09:12:17.676Z,888.75
2019-03-29T09:13:17.710Z,866.25
2019-03-29T09:14:17.750Z,860.63
2019-03-29T09:15:17.797Z,849.38
2019-03-29T09:16:17.835Z,849.38
2019-03-29T09:17:17.867Z,855.00
2019-03-29T09:18:17.908Z,855.00
2019-03-29T09:19:17.958Z,871.88
2019-03-29T09:20:17.988Z,871.88
2019-03-29T09:21:18.025Z,855.00
2019-03-29T09:22:18.066Z,883.13
2019-03-29T09:23:18.106Z,905.63
2019-03-29T09:24:22.362Z,860.63
2019-03-29T09:25:20.844Z,838.13
2019-03-29T09:26:18.222Z,826.88
2019-03-29T09:27:18.262Z,804.38
2019-03-29T09:28:18.308Z,821.25
2019-03-29T09:29:18.344Z,821.25
2019-03-29T09:30:18.380Z,804.38
2019-03-29T09:31:18.423Z,776.25
2019-03-29T09:32:18.462Z,759.38
2019-03-29T09:33:18.496Z,759.38
2019-03-29T09:34:18.537Z,753.75
2019-03-29T09:35:18.575Z,753.75
2019-03-29T09:36:18.615Z,753.75
2019-03-29T09:37:18.656Z,765.00
2019-03-29T09:38:18.691Z,776.25
2019-03-29T09:39:18.731Z,781.88
2019-03-29T09:46:54.362Z,793.13
2019-03-29T09:47:55.948Z,781.88
2019-03-29T09:48:54.437Z,770.63
2019-03-29T09:49:54.479Z,753.75
2019-03-29T09:50:54.522Z,753.75
2019-03-29T09:51:54.558Z,748.13
2019-03-29T09:52:54.602Z,736.88
2019-03-29T09:53:57.795Z,748.13
2019-03-29T09:54:54.674Z,736.88
2019-03-29T09:55:54.716Z,742.50
2019-03-29T09:56:54.758Z,748.13
2019-03-29T09:57:54.792Z,753.75
2019-03-29T09:58:54.832Z,748.13
2019-03-29T09:59:54.888Z,742.50
2019-03-29T10:00:54.909Z,748.13
2019-03-29T10:01:54.949Z,748.13
2019-03-29T10:02:54.987Z,742.50
2019-03-29T10:03:55.030Z,742.50
2019-03-29T10:04:55.066Z,748.13
2019-03-29T10:05:55.114Z,748.13
2019-03-29T10:06:55.146Z,748.13
2019-03-29T10:07:55.188Z,759.38
2019-03-29T10:08:55.223Z,759.38
2019-03-29T10:09:55.274Z,765.00
2019-03-29T10:10:55.307Z,748.13
2019-03-29T10:11:55.345Z,748.13
2019-03-29T10:12:55.384Z,748.13
2019-03-29T10:13:55.420Z,720.00
2019-03-29T10:14:55.465Z,748.13
2019-03-29T10:15:55.501Z,753.75
2019-03-29T10:16:55.541Z,759.38
2019-03-29T10:17:55.588Z,793.13
2019-03-29T10:18:55.626Z,793.13
2019-03-29T10:19:55.657Z,787.50
2019-03-29T10:20:55.695Z,787.50
2019-03-29T10:21:55.751Z,798.75
2019-03-29T10:22:55.776Z,804.38
2019-03-29T10:23:55.817Z,843.75
2019-03-29T10:24:55.852Z,832.50
2019-03-29T10:25:58.600Z,810.00
2019-03-29T10:26:55.933Z,849.38
2019-03-29T10:27:55.972Z,843.75
2019-03-29T10:28:56.023Z,826.88
2019-03-29T10:29:56.051Z,821.25
2019-03-29T10:30:56.092Z,826.88
2019-03-29T10:31:56.133Z,832.50
2019-03-29T10:32:56.169Z,843.75
2019-03-29T10:33:56.208Z,815.63
2019-03-29T10:34:56.248Z,866.25
2019-03-29T10:35:56.291Z,866.25
2019-03-29T10:36:56.330Z,883.13
2019-03-29T10:37:56.368Z,883.13
2019-03-29T10:38:56.412Z,883.13
2019-03-29T10:39:56.452Z,888.75
2019-03-29T10:40:56.489Z,888.75
2019-03-29T10:41:56.525Z,883.13
2019-03-29T10:42:57.962Z,866.25
2019-03-29T10:43:56.609Z,916.88
2019-03-29T10:44:56.646Z,973.13
2019-03-29T10:45:56.691Z,978.75
2019-03-29T10:46:56.725Z,1012.50
2019-03-29T10:47:56.765Z,973.13
2019-03-29T10:48:56.806Z,1012.50
2019-03-29T10:49:56.844Z,973.13
2019-03-29T10:50:56.885Z,950.63
2019-03-29T10:51:56.930Z,945.00
2019-03-29T10:52:56.969Z,1001.25
2019-03-29T10:53:57.006Z,956.25
2019-03-29T10:54:57.047Z,911.25
2019-03-29T10:55:57.089Z,911.25
2019-03-29T10:56:57.126Z,849.38
2019-03-29T10:57:57.178Z,905.63
2019-03-29T10:58:57.206Z,866.25
2019-03-29T10:59:57.248Z,871.88
2019-03-29T11:00:57.285Z,866.25
2019-03-29T11:01:57.326Z,843.75
2019-03-29T11:02:57.369Z,849.38
2019-03-29T11:03:57.410Z,900.00
2019-03-29T11:04:57.446Z,888.75
2019-03-29T11:05:57.488Z,928.13
2019-03-29T11:06:57.528Z,900.00
2019-03-29T11:07:57.565Z,900.00
2019-03-29T11:08:57.605Z,928.13
2019-03-29T11:09:57.646Z,956.25
2019-03-29T11:10:57.683Z,978.75
2019-03-29T11:11:57.724Z,1001.25
2019-03-29T11:13:11.389Z,1006.88
2019-03-29T11:13:57.801Z,995.63
2019-03-29T11:14:57.844Z,1096.88
2019-03-29T11:15:57.885Z,1175.63
2019-03-29T11:16:57.922Z,1164.38
2019-03-29T11:17:57.959Z,1147.50
2019-03-29T11:18:58.004Z,1125.00
2019-03-29T11:19:58.040Z,1074.38
2019-03-29T11:20:58.078Z,1029.38
2019-03-29T11:21:58.119Z,990.00
2019-03-29T11:22:58.159Z,939.38
2019-03-29T11:23:58.202Z,973.13
2019-03-29T11:24:58.238Z,922.50
2019-03-29T11:25:58.278Z,995.63
2019-03-29T11:26:58.324Z,961.88
2019-03-29T11:27:58.363Z,984.38
2019-03-29T11:28:58.397Z,1035.00
2019-03-29T11:29:58.438Z,995.63
2019-03-29T11:30:58.480Z,945.00
2019-03-29T11:31:58.515Z,939.38
2019-03-29T11:32:58.562Z,900.00
2019-03-29T11:33:58.596Z,866.25
2019-03-29T11:34:58.637Z,855.00
2019-03-29T11:35:58.674Z,843.75
2019-03-29T11:36:58.715Z,798.75
2019-03-29T11:37:58.752Z,748.13
2019-03-29T11:38:58.792Z,720.00
2019-03-29T11:39:58.830Z,731.25
2019-03-29T11:40:58.869Z,759.38
2019-03-29T11:41:58.910Z,793.13
2019-03-29T11:42:58.950Z,838.13
2019-03-29T11:43:58.990Z,883.13
2019-03-29T11:44:59.027Z,826.88
2019-03-29T11:45:59.065Z,787.50
2019-03-29T11:46:59.107Z,883.13
2019-03-29T11:48:08.214Z,928.13
2019-03-29T11:48:59.184Z,928.13
2019-03-29T11:49:59.223Z,967.50
2019-03-29T11:50:59.265Z,922.50
2019-03-29T11:51:59.314Z,877.50
2019-03-29T11:52:59.343Z,916.88
2019-03-29T11:53:59.382Z,855.00
2019-03-29T11:54:59.426Z,860.63
2019-03-29T11:55:59.463Z,883.13
2019-03-29T11:56:59.503Z,866.25
2019-03-29T11:57:59.544Z,900.00
2019-03-29T11:58:59.584Z,900.00
2019-03-29T11:59:59.624Z,916.88
2019-03-29T12:00:59.666Z,888.75
2019-03-29T12:01:59.705Z,877.50
2019-03-29T12:02:59.750Z,860.63
2019-03-29T12:03:59.792Z,894.38
2019-03-29T12:04:59.827Z,978.75
2019-03-29T12:05:59.871Z,995.63
2019-03-29T12:07:03.316Z,967.50
2019-03-29T12:07:59.949Z,945.00
2019-03-29T12:08:59.993Z,939.38
2019-03-29T12:10:00.031Z,877.50
2019-03-29T12:11:00.070Z,860.63
2019-03-29T12:12:00.111Z,832.50
2019-03-29T12:13:00.151Z,849.38
2019-03-29T12:14:00.203Z,826.88
2019-03-29T12:15:00.371Z,939.38
2019-03-29T12:16:00.276Z,849.38
2019-03-29T12:17:00.316Z,1023.75
2019-03-29T12:18:00.354Z,1035.00
2019-03-29T12:19:00.394Z,984.38
2019-03-29T12:20:00.516Z,804.38
2019-03-29T12:21:00.478Z,1063.13
2019-03-29T12:22:00.519Z,1096.88
2019-03-29T12:23:00.555Z,556.88
2019-03-29T12:24:00.595Z,798.75
2019-03-29T12:25:00.634Z,703.13
2019-03-29T12:26:00.735Z,731.25
2019-03-29T12:27:00.712Z,579.38
2019-03-29T12:28:00.754Z,590.63
2019-03-29T12:29:00.793Z,950.63
2019-03-29T12:30:00.831Z,703.13
2019-03-29T12:31:00.872Z,939.38
2019-03-29T12:32:00.910Z,1125.00
2019-03-29T12:33:00.946Z,804.38
2019-03-29T12:34:00.985Z,523.13
2019-03-29T12:35:01.041Z,540.00
2019-03-29T12:36:01.065Z,534.38
2019-03-29T12:37:01.100Z,562.50
2019-03-29T12:38:01.142Z,551.25
2019-03-29T12:39:01.177Z,590.63
2019-03-29T12:40:01.219Z,585.00
2019-03-29T12:41:01.251Z,590.63
2019-03-29T12:42:01.289Z,601.88
2019-03-29T12:43:01.326Z,596.25
2019-03-29T12:44:01.364Z,624.38
2019-03-29T12:45:01.400Z,624.38
2019-03-29T12:46:01.439Z,669.38
2019-03-29T12:47:01.473Z,714.38
2019-03-29T12:48:01.510Z,708.75